Main page
METAR-TAF:

METAR-TAF

Airports :

Ürümqi Diwopu International Airport

Ürümqi, China

latitude: 43-54N, longitude: 087-28E, elevation: 654 m

Current weather observation

The report was made 19 minutes ago, at 19:30 UTC
Wind 6 kt from the North/Northwest
Temperature 21°C
Humidity 43%
Pressure 1012 hPa
Visibility 10 km or more
no clouds below 1500 m and no cumulonimbus

METAR: ZWWW 191930Z 34003MPS CAVOK 21/08 Q1012 NOSIG

Time: 01:49 (19:49 UTC)

Forecast

The report was made 4 hours and 24 minutes ago, at 15:25 UTC
Forecast valid from 19 at 18 UTC to 20 at 18 UTC
Wind 8 kt from the South
Visibility 10 km or more
no clouds below 1500 m and no cumulonimbus
Becoming
from 20 at 03 UTC to 20 at 04 UTC
Wind 8 kt from the North/Northeast
Becoming
from 20 at 13 UTC to 20 at 14 UTC
Wind 8 kt from the South

TAF: ZWWW 191525Z 1918/2018 18004MPS CAVOK TX30/2009Z TN20/1923Z BECMG 2003/2004 02004MPS BECMG 2013/2014 18004MPS

Weather observations and forecasts of more than 4000 airports (METAR and TAF reports).

The available stations are represented by yellow and red dots on the map.

Hover mouse over dot to see the name of the station.

Then click to see weather observations and forecasts.

To change the map : click on the green buttons with a black cross to zoom in, on the green button with a dash to zoom out, or on the green arrows for adjacent maps.


METAR-TAF: